sensor_id;sensor_type;location;lat;lon;timestamp;P1;durP1;ratioP1;P2;durP2;ratioP2
74941;SDS011;63506;49.346;8.798;2023-09-18T00:02:08;8.43;;;4.72;;
74941;SDS011;63506;49.346;8.798;2023-09-18T00:04:37;5.88;;;4.38;;
74941;SDS011;63506;49.346;8.798;2023-09-18T00:07:06;6.60;;;3.78;;
74941;SDS011;63506;49.346;8.798;2023-09-18T00:09:35;8.90;;;4.63;;
74941;SDS011;63506;49.346;8.798;2023-09-18T00:12:03;6.95;;;4.70;;
74941;SDS011;63506;49.346;8.798;2023-09-18T00:14:34;6.22;;;4.80;;
74941;SDS011;63506;49.346;8.798;2023-09-18T00:17:04;7.00;;;4.93;;
74941;SDS011;63506;49.346;8.798;2023-09-18T00:19:34;8.95;;;4.18;;
74941;SDS011;63506;49.346;8.798;2023-09-18T00:22:02;6.07;;;4.55;;
74941;SDS011;63506;49.346;8.798;2023-09-18T00:24:33;8.88;;;4.88;;
74941;SDS011;63506;49.346;8.798;2023-09-18T00:27:00;7.78;;;5.50;;
74941;SDS011;63506;49.346;8.798;2023-09-18T00:29:28;18.08;;;5.82;;
74941;SDS011;63506;49.346;8.798;2023-09-18T00:32:00;8.05;;;5.20;;
74941;SDS011;63506;49.346;8.798;2023-09-18T00:34:28;7.72;;;5.25;;
74941;SDS011;63506;49.346;8.798;2023-09-18T00:36:57;6.60;;;5.05;;
74941;SDS011;63506;49.346;8.798;2023-09-18T00:39:25;10.45;;;4.40;;
74941;SDS011;63506;49.346;8.798;2023-09-18T00:41:54;7.50;;;4.57;;
74941;SDS011;63506;49.346;8.798;2023-09-18T00:44:22;11.02;;;4.22;;
74941;SDS011;63506;49.346;8.798;2023-09-18T00:46:50;10.27;;;4.97;;
74941;SDS011;63506;49.346;8.798;2023-09-18T00:49:18;7.60;;;5.05;;
74941;SDS011;63506;49.346;8.798;2023-09-18T00:51:46;7.32;;;4.07;;
74941;SDS011;63506;49.346;8.798;2023-09-18T00:54:14;7.13;;;4.45;;
74941;SDS011;63506;49.346;8.798;2023-09-18T00:56:44;7.47;;;5.00;;
74941;SDS011;63506;49.346;8.798;2023-09-18T00:59:13;6.07;;;3.53;;
74941;SDS011;63506;49.346;8.798;2023-09-18T01:01:40;9.45;;;5.10;;
74941;SDS011;63506;49.346;8.798;2023-09-18T01:04:09;11.10;;;4.65;;
74941;SDS011;63506;49.346;8.798;2023-09-18T01:06:39;6.45;;;5.03;;
74941;SDS011;63506;49.346;8.798;2023-09-18T01:09:06;6.15;;;4.82;;
74941;SDS011;63506;49.346;8.798;2023-09-18T01:11:40;6.25;;;4.40;;
74941;SDS011;63506;49.346;8.798;2023-09-18T01:14:14;12.05;;;5.57;;
74941;SDS011;63506;49.346;8.798;2023-09-18T01:16:48;5.80;;;4.88;;
74941;SDS011;63506;49.346;8.798;2023-09-18T01:19:34;6.45;;;5.30;;
74941;SDS011;63506;49.346;8.798;2023-09-18T01:22:02;7.32;;;5.25;;
74941;SDS011;63506;49.346;8.798;2023-09-18T01:24:31;7.75;;;4.53;;
74941;SDS011;63506;49.346;8.798;2023-09-18T01:27:00;5.28;;;4.22;;
74941;SDS011;63506;49.346;8.798;2023-09-18T01:29:27;5.95;;;4.53;;
74941;SDS011;63506;49.346;8.798;2023-09-18T01:31:55;5.40;;;4.90;;
74941;SDS011;63506;49.346;8.798;2023-09-18T01:34:25;5.30;;;4.80;;
74941;SDS011;63506;49.346;8.798;2023-09-18T01:36:54;7.05;;;3.80;;
74941;SDS011;63506;49.346;8.798;2023-09-18T01:39:22;5.07;;;3.53;;
74941;SDS011;63506;49.346;8.798;2023-09-18T01:41:56;5.30;;;4.15;;
74941;SDS011;63506;49.346;8.798;2023-09-18T01:44:27;8.63;;;5.78;;
74941;SDS011;63506;49.346;8.798;2023-09-18T01:46:58;5.60;;;4.65;;
74941;SDS011;63506;49.346;8.798;2023-09-18T01:49:27;7.72;;;6.00;;
74941;SDS011;63506;49.346;8.798;2023-09-18T01:51:55;6.88;;;5.32;;
74941;SDS011;63506;49.346;8.798;2023-09-18T01:54:23;5.85;;;5.22;;
74941;SDS011;63506;49.346;8.798;2023-09-18T01:56:51;10.05;;;4.78;;
74941;SDS011;63506;49.346;8.798;2023-09-18T01:59:23;7.00;;;4.03;;
74941;SDS011;63506;49.346;8.798;2023-09-18T02:01:51;6.88;;;4.75;;
74941;SDS011;63506;49.346;8.798;2023-09-18T02:04:19;6.50;;;5.55;;
74941;SDS011;63506;49.346;8.798;2023-09-18T02:06:50;9.27;;;5.15;;
74941;SDS011;63506;49.346;8.798;2023-09-18T02:09:20;5.75;;;5.15;;
74941;SDS011;63506;49.346;8.798;2023-09-18T02:11:47;6.43;;;5.25;;
74941;SDS011;63506;49.346;8.798;2023-09-18T02:14:15;7.13;;;5.78;;
74941;SDS011;63506;49.346;8.798;2023-09-18T02:16:44;11.93;;;5.13;;
74941;SDS011;63506;49.346;8.798;2023-09-18T02:19:14;7.47;;;4.32;;
74941;SDS011;63506;49.346;8.798;2023-09-18T02:21:43;8.13;;;5.55;;
74941;SDS011;63506;49.346;8.798;2023-09-18T02:24:10;7.65;;;4.82;;
74941;SDS011;63506;49.346;8.798;2023-09-18T02:26:37;6.30;;;4.18;;
74941;SDS011;63506;49.346;8.798;2023-09-18T02:29:05;5.03;;;4.53;;
74941;SDS011;63506;49.346;8.798;2023-09-18T02:31:35;5.18;;;4.68;;
74941;SDS011;63506;49.346;8.798;2023-09-18T02:34:04;6.55;;;4.60;;
74941;SDS011;63506;49.346;8.798;2023-09-18T02:36:35;6.15;;;4.82;;
74941;SDS011;63506;49.346;8.798;2023-09-18T02:39:04;5.60;;;4.57;;
74941;SDS011;63506;49.346;8.798;2023-09-18T02:41:37;5.95;;;4.45;;
74941;SDS011;63506;49.346;8.798;2023-09-18T02:44:04;6.13;;;4.30;;
74941;SDS011;63506;49.346;8.798;2023-09-18T02:46:32;5.05;;;4.45;;
74941;SDS011;63506;49.346;8.798;2023-09-18T02:48:59;9.63;;;5.28;;
74941;SDS011;63506;49.346;8.798;2023-09-18T02:51:31;7.03;;;5.05;;
74941;SDS011;63506;49.346;8.798;2023-09-18T02:53:58;7.97;;;3.90;;
74941;SDS011;63506;49.346;8.798;2023-09-18T02:56:26;4.45;;;4.03;;
74941;SDS011;63506;49.346;8.798;2023-09-18T02:58:53;10.52;;;4.90;;
74941;SDS011;63506;49.346;8.798;2023-09-18T03:01:23;6.30;;;4.75;;
74941;SDS011;63506;49.346;8.798;2023-09-18T03:03:50;7.65;;;5.20;;
74941;SDS011;63506;49.346;8.798;2023-09-18T03:06:17;7.50;;;4.50;;
74941;SDS011;63506;49.346;8.798;2023-09-18T03:08:49;6.57;;;5.32;;
74941;SDS011;63506;49.346;8.798;2023-09-18T03:11:20;7.13;;;4.13;;
74941;SDS011;63506;49.346;8.798;2023-09-18T03:13:47;6.30;;;4.53;;
74941;SDS011;63506;49.346;8.798;2023-09-18T03:16:20;7.25;;;4.03;;
74941;SDS011;63506;49.346;8.798;2023-09-18T03:18:47;6.55;;;4.65;;
74941;SDS011;63506;49.346;8.798;2023-09-18T03:21:15;7.00;;;5.22;;
74941;SDS011;63506;49.346;8.798;2023-09-18T03:23:42;14.02;;;5.60;;
74941;SDS011;63506;49.346;8.798;2023-09-18T03:26:11;6.03;;;4.88;;
74941;SDS011;63506;49.346;8.798;2023-09-18T03:28:38;6.50;;;4.25;;
74941;SDS011;63506;49.346;8.798;2023-09-18T03:31:07;5.95;;;4.53;;
74941;SDS011;63506;49.346;8.798;2023-09-18T03:33:37;6.32;;;5.60;;
74941;SDS011;63506;49.346;8.798;2023-09-18T03:36:04;6.70;;;5.65;;
74941;SDS011;63506;49.346;8.798;2023-09-18T03:38:36;6.70;;;3.97;;
74941;SDS011;63506;49.346;8.798;2023-09-18T03:41:06;8.55;;;5.35;;
74941;SDS011;63506;49.346;8.798;2023-09-18T03:43:35;6.43;;;5.65;;
74941;SDS011;63506;49.346;8.798;2023-09-18T03:46:05;4.82;;;4.43;;
74941;SDS011;63506;49.346;8.798;2023-09-18T03:51:05;4.75;;;4.22;;
74941;SDS011;63506;49.346;8.798;2023-09-18T03:53:33;5.60;;;5.03;;
74941;SDS011;63506;49.346;8.798;2023-09-18T03:56:01;7.15;;;5.38;;
74941;SDS011;63506;49.346;8.798;2023-09-18T03:58:31;5.68;;;4.20;;
74941;SDS011;63506;49.346;8.798;2023-09-18T04:01:03;5.38;;;4.40;;
74941;SDS011;63506;49.346;8.798;2023-09-18T04:03:30;4.65;;;4.25;;
74941;SDS011;63506;49.346;8.798;2023-09-18T04:06:01;7.47;;;5.00;;
74941;SDS011;63506;49.346;8.798;2023-09-18T04:08:29;6.38;;;5.45;;
74941;SDS011;63506;49.346;8.798;2023-09-18T04:10:59;7.22;;;5.05;;
74941;SDS011;63506;49.346;8.798;2023-09-18T04:13:28;6.65;;;4.88;;
74941;SDS011;63506;49.346;8.798;2023-09-18T04:15:59;6.07;;;5.00;;
74941;SDS011;63506;49.346;8.798;2023-09-18T04:18:30;5.28;;;4.78;;
74941;SDS011;63506;49.346;8.798;2023-09-18T04:20:58;6.88;;;4.75;;
74941;SDS011;63506;49.346;8.798;2023-09-18T04:23:28;8.57;;;4.97;;
74941;SDS011;63506;49.346;8.798;2023-09-18T04:25:56;10.00;;;4.95;;
74941;SDS011;63506;49.346;8.798;2023-09-18T04:28:24;10.10;;;4.68;;
74941;SDS011;63506;49.346;8.798;2023-09-18T04:30:51;10.25;;;4.97;;
74941;SDS011;63506;49.346;8.798;2023-09-18T04:33:21;14.02;;;5.43;;
74941;SDS011;63506;49.346;8.798;2023-09-18T04:35:50;9.13;;;5.53;;
74941;SDS011;63506;49.346;8.798;2023-09-18T04:38:19;6.68;;;3.78;;
74941;SDS011;63506;49.346;8.798;2023-09-18T04:40:47;8.05;;;4.35;;
74941;SDS011;63506;49.346;8.798;2023-09-18T04:43:15;13.75;;;6.43;;
74941;SDS011;63506;49.346;8.798;2023-09-18T04:45:43;10.52;;;4.97;;
74941;SDS011;63506;49.346;8.798;2023-09-18T04:48:15;10.57;;;4.32;;
74941;SDS011;63506;49.346;8.798;2023-09-18T04:50:42;13.93;;;6.07;;
74941;SDS011;63506;49.346;8.798;2023-09-18T04:53:12;10.75;;;4.38;;
74941;SDS011;63506;49.346;8.798;2023-09-18T04:55:39;7.20;;;4.22;;
74941;SDS011;63506;49.346;8.798;2023-09-18T04:58:07;10.32;;;3.80;;
74941;SDS011;63506;49.346;8.798;2023-09-18T05:00:34;8.05;;;3.65;;
74941;SDS011;63506;49.346;8.798;2023-09-18T05:03:02;15.27;;;4.40;;
74941;SDS011;63506;49.346;8.798;2023-09-18T05:05:33;9.15;;;4.43;;
74941;SDS011;63506;49.346;8.798;2023-09-18T05:08:05;11.32;;;4.80;;
74941;SDS011;63506;49.346;8.798;2023-09-18T05:10:35;6.97;;;4.43;;
74941;SDS011;63506;49.346;8.798;2023-09-18T05:13:03;16.60;;;5.18;;
74941;SDS011;63506;49.346;8.798;2023-09-18T05:15:30;11.07;;;4.72;;
74941;SDS011;63506;49.346;8.798;2023-09-18T05:17:58;14.60;;;4.85;;
74941;SDS011;63506;49.346;8.798;2023-09-18T05:20:27;7.07;;;3.95;;
74941;SDS011;63506;49.346;8.798;2023-09-18T05:22:56;7.35;;;5.72;;
74941;SDS011;63506;49.346;8.798;2023-09-18T05:25:25;8.43;;;5.47;;
74941;SDS011;63506;49.346;8.798;2023-09-18T05:27:56;13.07;;;5.03;;
74941;SDS011;63506;49.346;8.798;2023-09-18T05:30:28;13.32;;;4.75;;
74941;SDS011;63506;49.346;8.798;2023-09-18T05:32:57;5.70;;;4.28;;
74941;SDS011;63506;49.346;8.798;2023-09-18T05:35:30;9.45;;;4.57;;
74941;SDS011;63506;49.346;8.798;2023-09-18T05:37:59;12.23;;;5.97;;
74941;SDS011;63506;49.346;8.798;2023-09-18T05:40:27;12.75;;;5.03;;
74941;SDS011;63506;49.346;8.798;2023-09-18T05:42:56;9.63;;;6.00;;
74941;SDS011;63506;49.346;8.798;2023-09-18T05:45:23;15.25;;;5.35;;
74941;SDS011;63506;49.346;8.798;2023-09-18T05:47:52;10.80;;;5.38;;
74941;SDS011;63506;49.346;8.798;2023-09-18T05:50:27;6.30;;;4.55;;
74941;SDS011;63506;49.346;8.798;2023-09-18T05:52:55;11.52;;;6.43;;
74941;SDS011;63506;49.346;8.798;2023-09-18T05:55:27;7.70;;;4.20;;
74941;SDS011;63506;49.346;8.798;2023-09-18T05:57:56;13.80;;;5.28;;
74941;SDS011;63506;49.346;8.798;2023-09-18T06:00:24;6.22;;;4.10;;
74941;SDS011;63506;49.346;8.798;2023-09-18T06:02:51;11.32;;;4.30;;
74941;SDS011;63506;49.346;8.798;2023-09-18T06:05:19;15.48;;;5.95;;
74941;SDS011;63506;49.346;8.798;2023-09-18T06:07:50;10.23;;;4.78;;
74941;SDS011;63506;49.346;8.798;2023-09-18T06:10:19;7.22;;;4.80;;
74941;SDS011;63506;49.346;8.798;2023-09-18T06:12:46;12.82;;;4.55;;
74941;SDS011;63506;49.346;8.798;2023-09-18T06:15:15;10.57;;;5.28;;
74941;SDS011;63506;49.346;8.798;2023-09-18T06:17:43;10.70;;;5.30;;
74941;SDS011;63506;49.346;8.798;2023-09-18T06:20:11;6.38;;;4.32;;
74941;SDS011;63506;49.346;8.798;2023-09-18T06:22:39;7.18;;;4.70;;
74941;SDS011;63506;49.346;8.798;2023-09-18T06:25:08;11.20;;;5.85;;
74941;SDS011;63506;49.346;8.798;2023-09-18T06:27:36;6.53;;;3.78;;
74941;SDS011;63506;49.346;8.798;2023-09-18T06:30:04;12.82;;;5.18;;
74941;SDS011;63506;49.346;8.798;2023-09-18T06:32:34;10.73;;;4.55;;
74941;SDS011;63506;49.346;8.798;2023-09-18T06:35:03;6.25;;;4.22;;
74941;SDS011;63506;49.346;8.798;2023-09-18T06:37:30;9.27;;;4.22;;
74941;SDS011;63506;49.346;8.798;2023-09-18T06:40:00;9.20;;;4.25;;
74941;SDS011;63506;49.346;8.798;2023-09-18T06:42:31;9.35;;;4.60;;
74941;SDS011;63506;49.346;8.798;2023-09-18T06:45:01;8.32;;;5.35;;
74941;SDS011;63506;49.346;8.798;2023-09-18T06:47:36;6.50;;;4.43;;
74941;SDS011;63506;49.346;8.798;2023-09-18T06:50:08;9.43;;;4.80;;
74941;SDS011;63506;49.346;8.798;2023-09-18T06:52:37;8.95;;;5.25;;
74941;SDS011;63506;49.346;8.798;2023-09-18T06:55:10;9.77;;;4.47;;
74941;SDS011;63506;49.346;8.798;2023-09-18T06:57:43;19.65;;;5.80;;
74941;SDS011;63506;49.346;8.798;2023-09-18T07:00:11;10.10;;;4.32;;
74941;SDS011;63506;49.346;8.798;2023-09-18T07:02:42;8.43;;;5.68;;
74941;SDS011;63506;49.346;8.798;2023-09-18T07:05:15;10.18;;;6.53;;
74941;SDS011;63506;49.346;8.798;2023-09-18T07:07:43;10.90;;;5.20;;
74941;SDS011;63506;49.346;8.798;2023-09-18T07:10:10;5.78;;;3.78;;
74941;SDS011;63506;49.346;8.798;2023-09-18T07:12:40;10.45;;;5.07;;
74941;SDS011;63506;49.346;8.798;2023-09-18T07:15:07;10.07;;;5.13;;
74941;SDS011;63506;49.346;8.798;2023-09-18T07:17:38;5.63;;;4.07;;
74941;SDS011;63506;49.346;8.798;2023-09-18T07:20:10;8.35;;;4.85;;
74941;SDS011;63506;49.346;8.798;2023-09-18T07:22:44;11.77;;;5.45;;
74941;SDS011;63506;49.346;8.798;2023-09-18T07:25:12;8.65;;;5.10;;
74941;SDS011;63506;49.346;8.798;2023-09-18T07:27:45;5.65;;;3.85;;
74941;SDS011;63506;49.346;8.798;2023-09-18T07:30:15;6.95;;;4.35;;
74941;SDS011;63506;49.346;8.798;2023-09-18T07:32:45;6.68;;;4.57;;
74941;SDS011;63506;49.346;8.798;2023-09-18T07:35:14;10.88;;;3.60;;
74941;SDS011;63506;49.346;8.798;2023-09-18T07:37:41;17.23;;;4.80;;
74941;SDS011;63506;49.346;8.798;2023-09-18T07:40:11;4.57;;;3.33;;
74941;SDS011;63506;49.346;8.798;2023-09-18T07:42:41;6.55;;;3.80;;
74941;SDS011;63506;49.346;8.798;2023-09-18T07:45:09;5.43;;;2.45;;
74941;SDS011;63506;49.346;8.798;2023-09-18T07:47:37;5.55;;;2.97;;
74941;SDS011;63506;49.346;8.798;2023-09-18T07:50:05;4.45;;;3.38;;
74941;SDS011;63506;49.346;8.798;2023-09-18T07:52:35;7.05;;;2.95;;
74941;SDS011;63506;49.346;8.798;2023-09-18T07:55:02;8.68;;;3.05;;
74941;SDS011;63506;49.346;8.798;2023-09-18T07:57:30;9.38;;;3.25;;
74941;SDS011;63506;49.346;8.798;2023-09-18T08:00:00;12.68;;;2.53;;
74941;SDS011;63506;49.346;8.798;2023-09-18T08:02:38;7.32;;;2.40;;
74941;SDS011;63506;49.346;8.798;2023-09-18T08:05:08;8.88;;;3.30;;
74941;SDS011;63506;49.346;8.798;2023-09-18T08:07:37;5.40;;;2.17;;
74941;SDS011;63506;49.346;8.798;2023-09-18T08:10:06;5.28;;;2.53;;
74941;SDS011;63506;49.346;8.798;2023-09-18T08:12:35;7.10;;;2.55;;
74941;SDS011;63506;49.346;8.798;2023-09-18T08:15:05;8.88;;;2.45;;
74941;SDS011;63506;49.346;8.798;2023-09-18T08:17:36;7.38;;;2.92;;
74941;SDS011;63506;49.346;8.798;2023-09-18T08:20:04;4.28;;;2.20;;
74941;SDS011;63506;49.346;8.798;2023-09-18T08:22:41;3.95;;;2.00;;
74941;SDS011;63506;49.346;8.798;2023-09-18T08:25:09;3.13;;;1.98;;
74941;SDS011;63506;49.346;8.798;2023-09-18T08:27:37;6.57;;;1.92;;
74941;SDS011;63506;49.346;8.798;2023-09-18T08:30:08;5.80;;;2.67;;
74941;SDS011;63506;49.346;8.798;2023-09-18T08:32:36;2.88;;;1.55;;
74941;SDS011;63506;49.346;8.798;2023-09-18T08:35:04;7.00;;;2.20;;
74941;SDS011;63506;49.346;8.798;2023-09-18T08:37:32;2.72;;;2.22;;
74941;SDS011;63506;49.346;8.798;2023-09-18T08:40:03;4.15;;;1.60;;
74941;SDS011;63506;49.346;8.798;2023-09-18T08:42:35;3.17;;;1.50;;
74941;SDS011;63506;49.346;8.798;2023-09-18T08:45:06;3.45;;;1.20;;
74941;SDS011;63506;49.346;8.798;2023-09-18T08:47:38;4.70;;;2.00;;
74941;SDS011;63506;49.346;8.798;2023-09-18T08:50:09;3.35;;;1.55;;
74941;SDS011;63506;49.346;8.798;2023-09-18T08:52:36;3.08;;;1.92;;
74941;SDS011;63506;49.346;8.798;2023-09-18T08:55:06;3.22;;;1.88;;
74941;SDS011;63506;49.346;8.798;2023-09-18T08:57:35;5.63;;;1.60;;
74941;SDS011;63506;49.346;8.798;2023-09-18T09:00:03;3.42;;;1.90;;
74941;SDS011;63506;49.346;8.798;2023-09-18T09:02:33;3.22;;;2.05;;
74941;SDS011;63506;49.346;8.798;2023-09-18T09:05:03;4.22;;;1.75;;
74941;SDS011;63506;49.346;8.798;2023-09-18T09:07:34;5.55;;;2.03;;
74941;SDS011;63506;49.346;8.798;2023-09-18T09:10:05;2.00;;;1.13;;
74941;SDS011;63506;49.346;8.798;2023-09-18T09:12:49;5.55;;;1.63;;
74941;SDS011;63506;49.346;8.798;2023-09-18T09:15:19;4.07;;;2.55;;
74941;SDS011;63506;49.346;8.798;2023-09-18T09:17:49;4.53;;;1.05;;
74941;SDS011;63506;49.346;8.798;2023-09-18T09:20:18;6.18;;;1.15;;
74941;SDS011;63506;49.346;8.798;2023-09-18T09:22:45;3.92;;;1.67;;
74941;SDS011;63506;49.346;8.798;2023-09-18T09:25:23;2.88;;;1.77;;
74941;SDS011;63506;49.346;8.798;2023-09-18T09:27:55;3.22;;;1.27;;
74941;SDS011;63506;49.346;8.798;2023-09-18T09:30:25;2.95;;;1.20;;
74941;SDS011;63506;49.346;8.798;2023-09-18T09:32:54;4.82;;;2.55;;
74941;SDS011;63506;49.346;8.798;2023-09-18T09:35:23;5.35;;;1.50;;
74941;SDS011;63506;49.346;8.798;2023-09-18T09:37:54;4.30;;;1.30;;
74941;SDS011;63506;49.346;8.798;2023-09-18T09:40:25;2.08;;;1.20;;
74941;SDS011;63506;49.346;8.798;2023-09-18T09:42:53;2.63;;;1.13;;
74941;SDS011;63506;49.346;8.798;2023-09-18T09:45:26;3.50;;;1.50;;
74941;SDS011;63506;49.346;8.798;2023-09-18T09:47:56;3.25;;;1.90;;
74941;SDS011;63506;49.346;8.798;2023-09-18T09:50:24;4.05;;;1.42;;
74941;SDS011;63506;49.346;8.798;2023-09-18T09:52:55;5.13;;;1.25;;
74941;SDS011;63506;49.346;8.798;2023-09-18T09:55:26;3.42;;;1.02;;
74941;SDS011;63506;49.346;8.798;2023-09-18T09:57:56;5.97;;;1.77;;
74941;SDS011;63506;49.346;8.798;2023-09-18T10:00:25;4.25;;;1.27;;
74941;SDS011;63506;49.346;8.798;2023-09-18T10:03:00;3.17;;;1.85;;
74941;SDS011;63506;49.346;8.798;2023-09-18T10:05:29;1.70;;;1.00;;
74941;SDS011;63506;49.346;8.798;2023-09-18T10:07:59;4.85;;;1.55;;
74941;SDS011;63506;49.346;8.798;2023-09-18T10:10:36;3.78;;;1.65;;
74941;SDS011;63506;49.346;8.798;2023-09-18T10:13:10;7.82;;;1.88;;
74941;SDS011;63506;49.346;8.798;2023-09-18T10:15:39;2.85;;;1.25;;
74941;SDS011;63506;49.346;8.798;2023-09-18T10:18:17;2.03;;;1.33;;
74941;SDS011;63506;49.346;8.798;2023-09-18T10:20:47;8.25;;;2.80;;
74941;SDS011;63506;49.346;8.798;2023-09-18T10:23:18;2.45;;;1.95;;
74941;SDS011;63506;49.346;8.798;2023-09-18T10:25:57;2.05;;;1.00;;
74941;SDS011;63506;49.346;8.798;2023-09-18T10:28:29;2.28;;;1.35;;
74941;SDS011;63506;49.346;8.798;2023-09-18T10:31:00;5.80;;;1.70;;
74941;SDS011;63506;49.346;8.798;2023-09-18T10:33:29;1.77;;;1.00;;
74941;SDS011;63506;49.346;8.798;2023-09-18T10:35:57;4.47;;;1.60;;
74941;SDS011;63506;49.346;8.798;2023-09-18T10:38:26;2.47;;;1.30;;
74941;SDS011;63506;49.346;8.798;2023-09-18T10:40:56;1.30;;;0.90;;
74941;SDS011;63506;49.346;8.798;2023-09-18T10:43:25;5.57;;;1.25;;
74941;SDS011;63506;49.346;8.798;2023-09-18T10:45:54;3.00;;;1.08;;
74941;SDS011;63506;49.346;8.798;2023-09-18T10:48:22;2.80;;;1.40;;
74941;SDS011;63506;49.346;8.798;2023-09-18T10:50:50;3.60;;;0.98;;
74941;SDS011;63506;49.346;8.798;2023-09-18T10:53:18;3.42;;;1.23;;
74941;SDS011;63506;49.346;8.798;2023-09-18T10:55:48;8.80;;;1.17;;
74941;SDS011;63506;49.346;8.798;2023-09-18T10:58:24;2.22;;;1.02;;
74941;SDS011;63506;49.346;8.798;2023-09-18T11:00:53;2.17;;;1.15;;
74941;SDS011;63506;49.346;8.798;2023-09-18T11:03:22;3.83;;;1.58;;
74941;SDS011;63506;49.346;8.798;2023-09-18T11:06:01;4.15;;;1.42;;
74941;SDS011;63506;49.346;8.798;2023-09-18T11:08:30;2.80;;;1.33;;
74941;SDS011;63506;49.346;8.798;2023-09-18T11:11:03;3.00;;;1.58;;
74941;SDS011;63506;49.346;8.798;2023-09-18T11:13:38;4.18;;;1.30;;
74941;SDS011;63506;49.346;8.798;2023-09-18T11:16:19;3.10;;;1.17;;
74941;SDS011;63506;49.346;8.798;2023-09-18T11:19:11;3.70;;;1.73;;
74941;SDS011;63506;49.346;8.798;2023-09-18T11:21:39;3.15;;;1.55;;
74941;SDS011;63506;49.346;8.798;2023-09-18T11:24:07;8.95;;;2.75;;
74941;SDS011;63506;49.346;8.798;2023-09-18T11:26:39;2.47;;;1.45;;
74941;SDS011;63506;49.346;8.798;2023-09-18T11:29:09;3.78;;;1.15;;
74941;SDS011;63506;49.346;8.798;2023-09-18T11:31:41;3.97;;;1.10;;
74941;SDS011;63506;49.346;8.798;2023-09-18T11:34:11;6.45;;;1.90;;
74941;SDS011;63506;49.346;8.798;2023-09-18T11:36:42;1.80;;;1.33;;
74941;SDS011;63506;49.346;8.798;2023-09-18T11:39:10;1.83;;;0.80;;
74941;SDS011;63506;49.346;8.798;2023-09-18T11:41:37;1.98;;;1.08;;
74941;SDS011;63506;49.346;8.798;2023-09-18T11:47:07;7.55;;;1.70;;
74941;SDS011;63506;49.346;8.798;2023-09-18T11:49:40;1.73;;;1.05;;
74941;SDS011;63506;49.346;8.798;2023-09-18T11:52:15;1.80;;;1.13;;
74941;SDS011;63506;49.346;8.798;2023-09-18T11:54:43;8.00;;;1.33;;
74941;SDS011;63506;49.346;8.798;2023-09-18T11:57:12;1.10;;;1.00;;
74941;SDS011;63506;49.346;8.798;2023-09-18T11:59:42;12.38;;;3.88;;
74941;SDS011;63506;49.346;8.798;2023-09-18T12:02:12;2.67;;;1.15;;
74941;SDS011;63506;49.346;8.798;2023-09-18T12:04:48;2.33;;;1.83;;
74941;SDS011;63506;49.346;8.798;2023-09-18T12:07:15;5.22;;;1.25;;
74941;SDS011;63506;49.346;8.798;2023-09-18T12:09:47;2.08;;;1.23;;
74941;SDS011;63506;49.346;8.798;2023-09-18T12:12:14;5.00;;;1.92;;
74941;SDS011;63506;49.346;8.798;2023-09-18T12:14:47;2.97;;;1.30;;
74941;SDS011;63506;49.346;8.798;2023-09-18T12:17:14;5.93;;;1.00;;
74941;SDS011;63506;49.346;8.798;2023-09-18T12:19:51;7.97;;;1.23;;
74941;SDS011;63506;49.346;8.798;2023-09-18T12:22:23;1.90;;;1.58;;
74941;SDS011;63506;49.346;8.798;2023-09-18T12:25:09;3.95;;;1.13;;
74941;SDS011;63506;49.346;8.798;2023-09-18T12:27:37;1.38;;;1.08;;
74941;SDS011;63506;49.346;8.798;2023-09-18T12:30:10;2.80;;;1.08;;
74941;SDS011;63506;49.346;8.798;2023-09-18T12:32:38;3.15;;;0.80;;
74941;SDS011;63506;49.346;8.798;2023-09-18T12:35:06;3.83;;;1.33;;
74941;SDS011;63506;49.346;8.798;2023-09-18T12:37:35;1.58;;;0.82;;
74941;SDS011;63506;49.346;8.798;2023-09-18T12:40:06;1.95;;;1.35;;
74941;SDS011;63506;49.346;8.798;2023-09-18T12:42:36;1.55;;;0.77;;
74941;SDS011;63506;49.346;8.798;2023-09-18T12:45:10;3.35;;;0.98;;
74941;SDS011;63506;49.346;8.798;2023-09-18T12:47:37;1.17;;;0.80;;
74941;SDS011;63506;49.346;8.798;2023-09-18T12:50:12;2.33;;;1.20;;
74941;SDS011;63506;49.346;8.798;2023-09-18T12:52:40;1.15;;;0.75;;
74941;SDS011;63506;49.346;8.798;2023-09-18T12:55:07;4.43;;;1.27;;
74941;SDS011;63506;49.346;8.798;2023-09-18T12:57:49;1.70;;;1.03;;
74941;SDS011;63506;49.346;8.798;2023-09-18T13:00:19;4.70;;;1.17;;
74941;SDS011;63506;49.346;8.798;2023-09-18T13:02:48;1.30;;;1.02;;
74941;SDS011;63506;49.346;8.798;2023-09-18T13:05:21;3.00;;;1.05;;
74941;SDS011;63506;49.346;8.798;2023-09-18T13:08:03;2.67;;;1.05;;
74941;SDS011;63506;49.346;8.798;2023-09-18T13:10:42;1.98;;;1.10;;
74941;SDS011;63506;49.346;8.798;2023-09-18T13:13:16;2.42;;;1.10;;
74941;SDS011;63506;49.346;8.798;2023-09-18T13:15:46;5.78;;;1.45;;
74941;SDS011;63506;49.346;8.798;2023-09-18T13:18:14;1.77;;;1.15;;
74941;SDS011;63506;49.346;8.798;2023-09-18T13:20:42;1.10;;;0.98;;
74941;SDS011;63506;49.346;8.798;2023-09-18T13:23:11;2.60;;;0.88;;
74941;SDS011;63506;49.346;8.798;2023-09-18T13:25:39;2.03;;;0.90;;
74941;SDS011;63506;49.346;8.798;2023-09-18T13:28:10;2.28;;;0.63;;
74941;SDS011;63506;49.346;8.798;2023-09-18T13:30:45;3.00;;;0.90;;
74941;SDS011;63506;49.346;8.798;2023-09-18T13:33:15;2.15;;;0.85;;
74941;SDS011;63506;49.346;8.798;2023-09-18T13:35:46;1.52;;;0.85;;
74941;SDS011;63506;49.346;8.798;2023-09-18T13:38:14;2.05;;;0.88;;
74941;SDS011;63506;49.346;8.798;2023-09-18T13:40:45;1.67;;;0.90;;
74941;SDS011;63506;49.346;8.798;2023-09-18T13:43:14;1.23;;;0.73;;
74941;SDS011;63506;49.346;8.798;2023-09-18T13:45:51;1.75;;;0.90;;
74941;SDS011;63506;49.346;8.798;2023-09-18T13:48:24;1.58;;;1.13;;
74941;SDS011;63506;49.346;8.798;2023-09-18T13:50:52;3.17;;;1.33;;
74941;SDS011;63506;49.346;8.798;2023-09-18T13:53:19;1.27;;;0.73;;
74941;SDS011;63506;49.346;8.798;2023-09-18T13:55:48;3.28;;;0.80;;
74941;SDS011;63506;49.346;8.798;2023-09-18T13:58:15;2.05;;;0.90;;
74941;SDS011;63506;49.346;8.798;2023-09-18T14:00:43;2.33;;;0.80;;
74941;SDS011;63506;49.346;8.798;2023-09-18T14:03:14;2.17;;;0.82;;
74941;SDS011;63506;49.346;8.798;2023-09-18T14:05:44;3.83;;;1.27;;
74941;SDS011;63506;49.346;8.798;2023-09-18T14:08:13;2.40;;;1.23;;
74941;SDS011;63506;49.346;8.798;2023-09-18T14:10:44;2.00;;;1.00;;
74941;SDS011;63506;49.346;8.798;2023-09-18T14:13:11;3.13;;;0.90;;
74941;SDS011;63506;49.346;8.798;2023-09-18T14:15:57;2.38;;;0.90;;
74941;SDS011;63506;49.346;8.798;2023-09-18T14:18:45;4.13;;;1.13;;
74941;SDS011;63506;49.346;8.798;2023-09-18T14:21:14;1.85;;;0.90;;
74941;SDS011;63506;49.346;8.798;2023-09-18T14:23:44;5.03;;;0.82;;
74941;SDS011;63506;49.346;8.798;2023-09-18T14:26:12;2.72;;;1.08;;
74941;SDS011;63506;49.346;8.798;2023-09-18T14:28:40;3.75;;;0.95;;
74941;SDS011;63506;49.346;8.798;2023-09-18T14:31:10;2.47;;;1.08;;
74941;SDS011;63506;49.346;8.798;2023-09-18T14:33:38;1.98;;;1.02;;
74941;SDS011;63506;49.346;8.798;2023-09-18T14:36:10;1.27;;;0.93;;
74941;SDS011;63506;49.346;8.798;2023-09-18T14:38:40;1.88;;;1.10;;
74941;SDS011;63506;49.346;8.798;2023-09-18T14:41:14;3.30;;;1.30;;
74941;SDS011;63506;49.346;8.798;2023-09-18T14:43:44;2.33;;;1.40;;
74941;SDS011;63506;49.346;8.798;2023-09-18T14:46:12;5.15;;;1.10;;
74941;SDS011;63506;49.346;8.798;2023-09-18T14:48:40;2.08;;;1.00;;
74941;SDS011;63506;49.346;8.798;2023-09-18T14:51:07;1.42;;;1.10;;
74941;SDS011;63506;49.346;8.798;2023-09-18T14:53:36;2.55;;;1.45;;
74941;SDS011;63506;49.346;8.798;2023-09-18T14:56:03;2.33;;;1.15;;
74941;SDS011;63506;49.346;8.798;2023-09-18T14:58:42;1.42;;;0.80;;
74941;SDS011;63506;49.346;8.798;2023-09-18T15:01:10;2.58;;;1.50;;
74941;SDS011;63506;49.346;8.798;2023-09-18T15:03:44;1.77;;;1.05;;
74941;SDS011;63506;49.346;8.798;2023-09-18T15:06:12;2.90;;;1.17;;
74941;SDS011;63506;49.346;8.798;2023-09-18T15:08:41;2.72;;;1.10;;